Latest Weather Observations for Kiama

IDN60801

Issued at 11:03 pm EST Wednesday 26 September 2018 (issued every 10 minutes, with the page automatically refreshed every 10 minutes)

About weather observations | Map of weather stations | Latest weather observations for NSW | Other Formats
Station Details ID: 068242 Name: KIAMA (BOMBO HEADLAND) Lat: -34.65 Lon: 150.86 Height: 15.5 m
Data from the previous 72 hours. | See also: Recent months at Kiama
Date/Time
EST
Temp
°C
App
Temp
°C
Dew
Point
°C
Rel
Hum
%
Delta-T
°C
Wind Press
QNH
hPa
Press
MSL
hPa
Rain since
9am
mm
Dir  Spd
km/h
Gust
km/h
Spd
kts
Gust
kts
26/11:00pm 8.9 6.4 6.7 86 1.0 W 9 13 5 7 - - 6.4
26/10:30pm 9.1 7.0 6.7 85 1.1 W 7 9 4 5 - - 6.4
26/10:00pm 9.8 8.0 7.2 84 1.2 W 6 7 3 4 - - 6.4
26/09:30pm 9.8 8.1 7.4 85 1.1 W 6 7 3 4 - - 6.4
26/09:00pm 9.8 7.5 7.4 85 1.1 W 9 11 5 6 - - 6.4
26/08:30pm 10.2 8.5 7.6 84 1.2 W 6 7 3 4 - - 6.4
26/08:00pm 10.7 9.6 8.3 85 1.2 W 4 6 2 3 - - 6.4
26/07:30pm 11.0 9.3 8.2 83 1.4 W 7 11 4 6 - - 6.4
26/07:00pm 11.5 9.8 8.5 82 1.5 WSW 7 9 4 5 - - 6.4
26/06:30pm 12.3 10.7 8.8 79 1.7 SW 7 11 4 6 - - 6.4
26/06:00pm 13.2 10.8 8.5 73 2.3 SSW 11 15 6 8 - - 6.4
26/05:30pm 13.2 11.5 8.5 73 2.3 SSE 7 13 4 7 - - 6.4
26/05:00pm 13.4 11.9 8.5 72 2.4 SE 6 7 3 4 - - 6.4
26/04:30pm 13.9 12.3 8.9 72 2.5 ESE 7 11 4 6 - - 6.4
26/04:00pm 13.7 12.7 9.0 73 2.4 SE 4 6 2 3 - - 6.4
26/03:30pm 13.8 12.3 9.3 74 2.3 E 7 11 4 6 - - 6.4
26/03:00pm 13.6 11.5 9.6 77 2.0 E 11 17 6 9 - - 6.4
26/02:30pm 14.1 10.7 10.5 79 1.9 ENE 19 24 10 13 - - 6.4
26/02:00pm 13.5 10.0 10.1 80 1.8 E 19 28 10 15 - - 6.4
26/01:30pm 14.0 10.5 10.8 81 1.7 SSW 20 30 11 16 - - 6.4
26/01:00pm 12.0 8.7 9.4 84 1.3 SW 17 26 9 14 - - 6.2
26/12:30pm 11.6 9.0 9.2 85 1.2 SSW 13 19 7 10 - - 5.6
26/12:00pm 11.3 7.3 8.9 85 1.2 S 20 28 11 15 - - 5.6
26/11:30am 11.2 6.9 9.5 89 0.9 SW 22 28 12 15 - - 5.2
26/11:00am 11.0 7.6 9.1 88 0.9 SW 17 26 9 14 - - 3.2
26/10:30am 11.3 7.5 8.9 85 1.2 WSW 19 35 10 19 - - 0.6
26/10:00am 12.2 5.9 8.9 80 1.6 S 32 39 17 21 - - 0.0
26/09:30am 13.3 9.7 10.5 83 1.5 S 20 26 11 14 - - 0.0
26/09:00am 13.5 9.5 10.3 81 1.7 S 22 28 12 15 - - 1.4
26/08:30am 13.6 10.2 10.4 81 1.7 S 19 24 10 13 - - 1.4
26/08:00am 13.4 13.2 10.4 82 1.6 SSW 2 13 1 7 - - 1.4
26/07:30am 12.5 11.4 10.0 85 1.3 SSW 6 9 3 5 - - 1.4
26/07:00am 12.2 11.1 9.8 85 1.2 WSW 6 7 3 4 - - 1.4
26/06:30am 12.0 10.7 9.2 83 1.4 W 6 7 3 4 - - 1.2
26/06:00am 12.5 12.4 9.3 81 1.6 CALM 0 0 0 0 - - 1.0
26/05:30am 12.5 11.5 9.0 79 1.8 W 4 6 2 3 - - 0.4
26/05:00am 12.5 11.3 8.0 74 2.2 W 4 4 2 2 - - 0.0
26/04:30am 12.4 11.1 7.5 72 2.4 WNW 4 4 2 2 - - 0.0
26/04:00am 12.8 10.9 7.5 70 2.6 WNW 7 9 4 5 - - 0.0
26/03:30am 12.7 10.5 8.0 73 2.3 WNW 9 11 5 6 - - 0.0
26/03:00am 12.7 10.9 8.0 73 2.3 WNW 7 11 4 6 - - 0.0
26/02:30am 12.9 10.8 8.2 73 2.3 WNW 9 13 5 7 - - 0.0
26/02:00am 12.5 10.8 8.4 76 2.0 W 7 9 4 5 - - 0.0
26/01:30am 12.1 10.6 8.4 78 1.8 W 6 7 3 4 - - 0.0
26/01:00am 12.3 11.7 8.8 79 1.7 WNW 2 4 1 2 - - 0.0
26/12:30am 12.6 11.3 9.1 79 1.8 W 6 6 3 3 - - 0.0
26/12:00am 13.0 12.4 8.9 76 2.1 WNW 2 6 1 3 - - 0.0
 
Date/Time
EST
Temp
°C
App
Temp
°C
Dew
Point
°C
Rel
Hum
%
Delta-T
°C
Wind Press
QNH
hPa
Press
MSL
hPa
Rain since
9am
mm
Dir  Spd
km/h
Gust
km/h
Spd
kts
Gust
kts
25/11:30pm 13.1 11.5 8.0 71 2.5 WNW 6 11 3 6 - - 0.0
25/11:00pm 13.7 11.8 7.7 67 3.0 NW 7 9 4 5 - - 0.0
25/10:30pm 13.8 12.2 7.8 67 3.0 NW 6 9 3 5 - - 0.0
25/10:00pm 13.7 12.0 7.7 67 3.0 WNW 6 7 3 4 - - 0.0
25/09:30pm 13.9 12.3 7.9 67 3.0 NNW 6 9 3 5 - - 0.0
25/09:00pm 14.8 11.8 7.8 63 3.5 NNE 13 19 7 10 - - 0.0
25/08:30pm 14.1 12.3 7.9 66 3.1 N 7 17 4 9 - - 0.0
25/08:00pm 14.7 11.7 7.5 62 3.6 NNE 13 22 7 12 - - 0.0
25/07:30pm 14.7 11.8 8.0 64 3.3 NE 13 19 7 10 - - 0.0
25/07:00pm 14.5 11.4 7.1 61 3.6 NNE 13 17 7 9 - - 0.0
25/06:30pm 14.4 11.4 7.7 64 3.3 NE 13 19 7 10 - - 0.0
25/06:00pm 14.3 11.2 7.1 62 3.5 NNE 13 17 7 9 - - 0.0
25/05:30pm 14.2 11.2 7.7 65 3.2 NNE 13 17 7 9 - - 0.0
25/05:00pm 14.9 11.9 7.7 62 3.6 NE 13 17 7 9 - - 0.0
25/04:30pm 15.3 12.2 7.3 59 4.0 NE 13 19 7 10 - - 0.0
25/04:00pm 15.5 12.5 7.5 59 4.0 NE 13 19 7 10 - - 0.0
25/03:30pm 15.9 13.3 7.9 59 4.0 NE 11 19 6 10 - - 0.0
25/03:00pm 16.5 14.1 8.7 60 4.0 NE 11 19 6 10 - - 0.0
25/02:30pm 16.1 12.9 8.6 61 3.8 NE 15 20 8 11 - - 0.0
25/02:00pm 16.5 13.9 9.2 62 3.8 NE 13 19 7 10 - - 0.0
25/01:30pm 16.1 13.7 8.8 62 3.7 E 11 15 6 8 - - 0.0
25/01:00pm 15.7 13.5 8.0 60 3.9 SE 9 13 5 7 - - 0.0
25/12:30pm 15.6 13.2 8.8 64 3.5 SE 11 15 6 8 - - 0.0
25/12:00pm 14.8 11.9 8.3 65 3.3 SSE 13 15 7 8 - - 0.0
25/11:30am 15.0 12.2 8.7 66 3.2 SSE 13 17 7 9 - - 0.0
25/11:00am 14.7 11.8 8.0 64 3.3 SSE 13 17 7 9 - - 0.0
25/10:30am 14.3 10.8 7.1 62 3.5 SSE 15 17 8 9 - - 0.0
25/10:00am 14.3 11.1 6.9 61 3.6 S 13 17 7 9 - - 0.0
25/09:30am 14.3 11.2 7.4 63 3.4 S 13 22 7 12 - - 0.0
25/09:00am 14.0 10.1 7.1 63 3.4 SSW 17 20 9 11 - - 0.0
25/08:30am 13.8 9.9 7.3 65 3.2 SSW 17 20 9 11 - - 0.0
25/08:00am 13.6 9.8 7.4 66 3.0 SSW 17 20 9 11 - - 0.0
25/07:30am 13.3 10.0 6.6 64 3.2 SSW 13 17 7 9 - - 0.0
25/07:00am 12.9 9.7 6.7 66 3.0 SSW 13 17 7 9 - - 0.0
25/06:30am 12.0 9.6 6.9 71 2.4 SW 9 15 5 8 - - 0.0
25/06:00am 12.1 9.3 6.8 70 2.5 SSW 11 15 6 8 - - 0.0
25/05:30am 12.1 8.9 6.8 70 2.5 SSW 13 15 7 8 - - 0.0
25/05:00am 11.9 9.4 6.6 70 2.5 SW 9 11 5 6 - - 0.0
25/04:30am 11.8 9.3 6.5 70 2.5 SW 9 11 5 6 - - 0.0
25/04:00am 11.3 9.2 6.6 73 2.2 WSW 7 9 4 5 - - 0.0
25/03:30am 11.1 8.6 6.5 73 2.2 W 9 11 5 6 - - 0.0
25/03:00am 10.6 8.1 6.4 75 2.0 W 9 13 5 7 - - 0.0
25/02:30am 10.4 7.9 6.4 76 1.9 WSW 9 11 5 6 - - 0.0
25/02:00am 10.7 8.6 6.5 75 2.0 SW 7 13 4 7 - - 0.0
25/01:30am 10.9 8.8 6.5 74 2.1 SW 7 13 4 7 - - 0.0
25/01:00am 12.0 9.2 7.1 72 2.4 SW 11 13 6 7 - - 0.0
25/12:30am 12.0 9.3 7.5 74 2.2 SW 11 15 6 8 - - 0.0
25/12:00am 11.6 8.9 7.3 75 2.1 SW 11 15 6 8 - - 0.0
 
Date/Time
EST
Temp
°C
App
Temp
°C
Dew
Point
°C
Rel
Hum
%
Delta-T
°C
Wind Press
QNH
hPa
Press
MSL
hPa
Rain since
9am
mm
Dir  Spd
km/h
Gust
km/h
Spd
kts
Gust
kts
24/11:30pm 11.5 9.1 6.8 73 2.2 WSW 9 13 5 7 - - 0.0
24/11:00pm 11.3 9.2 6.8 74 2.1 WSW 7 11 4 6 - - 0.0
24/10:30pm 10.7 8.6 6.6 76 1.9 WSW 7 11 4 6 - - 0.0
24/10:00pm 10.2 7.9 5.8 74 2.0 WSW 7 11 4 6 - - 0.0
24/09:30pm 10.4 9.1 6.0 74 2.0 SW 2 4 1 2 - - 0.0
24/09:00pm 10.6 9.3 5.8 72 2.2 WSW 2 4 1 2 - - 0.0
24/08:30pm 11.2 9.3 6.7 74 2.1 WSW 6 7 3 4 - - 0.0
24/08:00pm 11.4 9.4 6.9 74 2.1 W 7 9 4 5 - - 0.0
24/07:30pm 12.3 10.1 7.8 74 2.2 SSW 9 17 5 9 - - 0.0
24/07:00pm 11.9 8.1 7.6 75 2.1 SSW 17 20 9 11 - - 0.0
24/06:30pm 11.9 7.8 7.8 76 2.0 SSW 19 24 10 13 - - 0.0
24/06:00pm 12.3 8.0 8.0 75 2.1 SSW 20 26 11 14 - - 0.0
24/05:30pm 12.6 8.4 8.3 75 2.1 SSW 20 28 11 15 - - 0.0
24/05:00pm 12.6 7.3 8.3 75 2.1 SSW 26 32 14 17 - - 0.0
24/04:30pm 13.1 7.9 8.8 75 2.2 S 26 33 14 18 - - 0.0
24/04:00pm 13.1 8.5 8.0 71 2.5 S 22 26 12 14 - - 0.0
24/03:30pm 13.1 7.8 8.4 73 2.3 S 26 33 14 18 - - 0.0
24/03:00pm 13.6 7.8 8.0 69 2.8 S 28 33 15 18 - - 0.0
24/02:30pm 13.2 7.8 8.1 71 2.5 S 26 33 14 18 - - 0.0
24/02:00pm 12.9 6.6 9.0 77 2.0 S 32 39 17 21 - - 0.0
24/01:30pm 13.3 8.2 9.2 76 2.1 S 26 35 14 19 - - 0.0
24/01:00pm 13.6 7.8 9.6 77 2.0 S 30 39 16 21 - - 0.0
24/12:30pm 13.3 8.0 8.6 73 2.4 S 26 35 14 19 - - 0.0
24/12:00pm 13.6 6.9 9.5 76 2.1 S 35 48 19 26 - - 0.0
24/11:30am 13.7 7.9 8.1 69 2.8 S 28 39 15 21 - - 0.0
24/11:00am 13.2 6.7 8.3 72 2.4 S 32 43 17 23 - - 0.0
24/10:30am 13.4 6.8 7.6 68 2.8 SSW 32 37 17 20 - - 0.0
24/10:00am 13.3 5.6 7.1 66 3.0 SSW 37 52 20 28 - - 0.0
24/09:30am 13.1 6.0 6.2 63 3.3 SSW 33 44 18 24 - - 0.0
24/09:00am 12.7 5.5 5.8 63 3.2 SSW 33 44 18 24 - - 4.0
24/08:30am 12.5 5.4 5.7 63 3.2 SSW 32 46 17 25 - - 4.0
24/08:00am 11.9 5.3 4.4 60 3.4 SSW 28 43 15 23 - - 4.0
24/07:30am 11.7 4.8 4.4 61 3.3 SW 30 37 16 20 - - 4.0
24/07:00am 11.4 4.7 3.9 60 3.3 SSW 28 37 15 20 - - 4.0
24/06:30am 11.0 4.3 3.5 60 3.3 SW 28 39 15 21 - - 4.0
24/06:00am 11.1 5.1 3.6 60 3.3 SSW 24 33 13 18 - - 4.0
24/05:30am 11.0 4.7 3.8 61 3.2 SW 26 35 14 19 - - 4.0
24/05:00am 11.4 4.5 4.8 64 3.0 SSW 30 39 16 21 - - 4.0
24/04:30am 11.1 5.0 4.8 65 2.9 SW 26 37 14 20 - - 4.0
24/04:00am 11.3 4.9 5.0 65 2.9 SSW 28 37 15 20 - - 4.0
24/03:30am 11.2 4.8 5.1 66 2.8 SSW 28 39 15 21 - - 4.0
24/03:00am 11.4 5.1 5.5 67 2.7 SSW 28 39 15 21 - - 4.0
24/02:30am 11.3 5.4 6.0 70 2.5 SSW 26 39 14 21 - - 4.0
24/02:00am 11.4 5.7 6.5 72 2.3 SSW 26 37 14 20 - - 4.0
24/01:30am 11.4 5.3 6.5 72 2.3 SSW 28 43 15 23 - - 4.0
24/01:00am 11.6 5.2 7.1 74 2.2 SSW 30 39 16 21 - - 4.0
24/12:30am 11.4 5.8 7.1 75 2.1 SSW 26 39 14 21 - - 4.0
24/12:00am 11.4 3.9 7.9 79 1.7 SSW 37 50 20 27 - - 4.0
 
Date/Time
EST
Temp
°C
App
Temp
°C
Dew
Point
°C
Rel
Hum
%
Delta-T
°C
Wind Press
QNH
hPa
Press
MSL
hPa
Rain since
9am
mm
Dir  Spd
km/h
Gust
km/h
Spd
kts
Gust
kts
23/11:51pm 11.9 5.7 8.0 77 1.9 SSW 30 48 16 26 - - 4.0
23/11:30pm 11.6 6.3 8.3 80 1.6 SSW 26 35 14 19 - - 4.0

Other Formats:

Comma delimited format used in spreadsheet applications
http://www.bom.gov.au/fwo/IDN60801/IDN60801.95749.axf

JavaScript Object Notation format (JSON) in row-major order
http://www.bom.gov.au/fwo/IDN60801/IDN60801.95749.json